Tuesday, September 25, 2018, 6:56 PM EDT
Back to Local

KNHK, Nas Patuxent River Md

Location: Patuxent River, MD, United States Lat: 38.3
Local Time: 6:56 PM EDT (22:56 GMT) Lon: -76.4
Time Zone: US/Eastern Elev: 39 ft

Show me the last for .
Show Decoded

2018-09-25 17:52 METAR KNHK 252152Z 12005KT 10SM FEW035 SCT140 BKN230 28/23 A3013 RMK AO2 SLP204
                 T02830233 $ =
2018-09-25 16:52 METAR KNHK 252052Z 15007KT 10SM FEW035 BKN140 BKN230 29/22 A3015 RMK AO2 SLP210
                 T02940217 56011 $ =
2018-09-25 15:52 METAR KNHK 251952Z 14008KT 10SM FEW035 BKN140 BKN250 29/23 A3016 RMK AO2 SLP213
                 T02940228 $ =
2018-09-25 14:52 METAR KNHK 251852Z 14008KT 10SM SCT035 BKN160 BKN250 28/23 A3017 RMK AO2 SLP216
                 T02830228 $ =
2018-09-25 13:52 METAR KNHK 251752Z 14010KT 10SM FEW035 SCT180 28/23 A3018 RMK AO2 SLP221
                 T02830228 10289 20250 58019 $ =
2018-09-25 12:52 METAR KNHK 251652Z 13009KT 10SM FEW025 SCT038 BKN180 28/23 A3021 RMK AO2 SLP229
                 T02830233 $ =
2018-09-25 11:52 METAR KNHK 251552Z 14011KT 10SM SCT040 BKN200 28/23 A3022 RMK AO2 SLP234
                 T02780233 $ =
2018-09-25 10:52 METAR KNHK 251452Z 14011KT 10SM FEW007 SCT060 BKN180 28/23 A3024 RMK AO2 SLP239
                 T02780233 $ =
2018-09-25 09:57 METAR KNHK 251357Z 14009KT 9SM FEW007 SCT060 BKN140 27/23 A3025 RMK AO2
                 T02670228 $ =
2018-09-25 09:52 METAR KNHK 251352Z 14008KT 9SM BKN007 27/23 A3025 RMK SLP242 T02670228 =
2018-09-25 08:52 METAR KNHK 251252Z COR 14008KT 8SM OVC007 25/22 A3025 RMK AO2 SLP242 T02500222
                 CHINO RY24 $ =
2018-09-25 08:35 METAR KNHK 251235Z 15009KT 25/22 A3025 RMK AO2 T02500222 CHINO RY24 VISNO RY24 $
                 =
2018-09-25 07:52 METAR KNHK 251152Z 14007KT 8SM OVC007 25/22 A3025 RMK AO2 RAE01 SLP242 P0000
                 60000 70010 T02500222 10250 20228 53002 CHINO RY24 VISNO RY24 $ =
2018-09-25 06:52 METAR KNHK 251052Z 15007KT 8SM -RA OVC007 24/22 A3023 RMK AO2 RAB51 SLP238 P0000
                 T02440217 CHINO RY24 VISNO RY24 $ =
2018-09-25 05:52 METAR KNHK 250952Z 13008KT 10SM OVC007 24/21 A3023 RMK AO2 SLP236 T02440211 =
2018-09-25 04:52 METAR KNHK 250852Z AUTO 12009KT 10SM OVC007 24/21 A3024 RMK AO2 SLP240 T02390211
                 56016 =
2018-09-25 04:03 METAR KNHK 250803Z AUTO 10009KT 10SM OVC009 23/20 A3024 RMK AO2 T02330200 =
2018-09-25 03:52 METAR KNHK 250752Z AUTO 11010KT 10SM OVC011 23/20 A3024 RMK AO2 SLP241 T02330200
                 =
2018-09-25 02:52 METAR KNHK 250652Z AUTO 10013KT 10SM OVC013 23/19 A3026 RMK AO2 SLP246 T02280194
                 =
2018-09-25 01:52 METAR KNHK 250552Z AUTO 10009G16KT 10SM OVC013 23/19 A3029 RMK AO2 SLP256 60000
                 T02280194 10228 20200 58008 =
2018-09-25 01:39 METAR KNHK 250539Z AUTO 09009KT 10SM BKN013 OVC018 23/19 A3029 RMK AO2 T02280194
                 =
2018-09-25 01:26 METAR KNHK 250526Z AUTO 10012KT 10SM OVC015 23/19 A3030 RMK AO2 T02280194 =
2018-09-25 00:52 METAR KNHK 250452Z AUTO 10012KT 10SM OVC012 21/19 A3030 RMK AO2 SLP260 T02110194
                 402110183 =
2018-09-24 23:52 METAR KNHK 250352Z AUTO 10014G19KT 10SM OVC010 21/19 A3031 RMK AO2 DZE01 SLP264
                 P0000 T02110194 =
2018-09-24 23:07 METAR KNHK 250307Z AUTO 09011G20KT 10SM OVC012 21/19 A3031 RMK AO2 DZE01 P0000
                 T02060189 =
2018-09-24 22:52 METAR KNHK 250252Z COR 09015G20KT 10SM -DZ BKN009 OVC015 21/19 A3031 RMK AO2
                 DZB52 SLP264 P0000 60000 T02060189 53003 =
2018-09-24 21:52 METAR KNHK 250152Z 09013KT 10SM BKN009 OVC015 21/19 A3030 RMK AO2 DZE0053 SLP262
                 P0000 T02060189 =
2018-09-24 20:52 METAR KNHK 250052Z COR 09014G20KT 10SM BKN009 OVC015 21/19 A3030 RMK AO2 SLP262
                 P0000 T02060189 =
2018-09-24 19:52 METAR KNHK 242352Z 09013G20KT 10SM -DZ OVC009 20/19 A3030 RMK AO2 SLP260 P0000
                 60000 T02000189 10206 20194 53005 =

Support USWX by starting your Amazon purchase here.